カトマンズ の空港の天気 - METARとTAF

トリブバン国際空港 ( VNKT / KTM ) - ネパール カトマンズ
飛行場実況気象(Metar)
観測時間12/12 16:05 NPT (12/12 10:20 UTC)
風向・風速南西 4m/s
視程10km以上
天気現象
少しの雲 雲底高度 610m
全天の8割程度の雲 雲底高度 7620m
気温17℃
湿度42%
気圧1019hPa
METARVNKT 121020Z 22008KT 9999 FEW020 BKN250 17/04 Q1019 NOSIG
過去の天気等 Google飛行場航空写真 Wunderground天気予報

過去48時間のMETAR

飛行場予報(TAF)
発表時間: 12/12 10:45 NPT (12/12 05:00 UTC)
予報対象時間: 12日11時 NPT ~ 13日11時 NPT
風向・風速南東 2m/s
視程7000m
少しの雲 雲底高度 610m
全天の4割程度の雲 雲底高度 7620m
12日12時 NPT ~ 12日13時 NPT に徐々に
風向・風速西 4m/s
視程8000m
少しの雲 雲底高度 610m
全天の4割程度の雲 雲底高度 3050m
12日19時 NPT ~ 12日20時 NPT に徐々に
風向・風速東 2m/s
視程6000m
少しの雲 雲底高度 460m
全天の4割程度の雲 雲底高度 910m
13日5時 NPT ~ 13日7時 NPT に徐々に
風向・風速不定 1m/s
視程3000m
天気現象もや
少しの雲 雲底高度 300m
全天の4割程度の雲 雲底高度 3050m
13日6時 NPT から 確率 40% で
視程1000m
天気現象もや
13日8時 NPT ~ 13日9時 NPT に徐々に
風向・風速南東 2m/s
視程6000m
少しの雲 雲底高度 460m
TAF VNKT 120500Z 1206/1306 14004KT 7000 FEW020 SCT250
BECMG 1207/1208 28008KT 8000 FEW020 SCT100
BECMG 1214/1215 10003KT 6000 FEW015 SCT030
BECMG 1300/1302 VRB02KT 3000 BR FEW010 SCT100
PROB40 1301/1303 1000 BR
BECMG 1303/1304 13004KT 6000 FEW015